logo
Rechercher aéroport 
image banner adimage banner adimage banner ad
image banner ad

VTCL - Lampang / Lampang Airport

Situé à Lampang, Thailand

ICAO - VTCL, IATA - LPT

Données fournies par Airmate  

Information générale

Coordonnées: N18°16'20" E99°30'15"
Élévation : 811 feet MSL.
 
Évalué:
Voir évaluations:
[VIEW]
Voir autres Aéroports à Lampang Province

Données opérationnelles

Special qualification required
Heure actuelle UTC:
Heure actuelle locale:
Météo
TAF: TAF VTCL 131700Z 1318/1418 16005KT 9999 SCT030 BECMG 1402/1404 27005KT BECMG 1408/1410 16005KT TEMPO 1410/1412 18010G20KT 4000 TSRA FEW020CB SCT025
Voir NOTAMs / SUP AIP / TFR affectant cet aéroport [VIEW]
Fréquences de communication: [VIEW]

Pistes:

Identifiant RWYQFULongueur (ft)Largeur (ft)SurfaceLDA (ft)
18175°648098ASP
36355°648098ASP

Coordonnées de l'aéroport

Adresse: Lampang Thailand

Vue satellite de VTCL